createdAt,value
2022-11-14T00:00:59.296Z,93808.75
2022-11-14T00:03:25.768Z,93732.59
2022-11-14T00:05:53.287Z,93780.84
2022-11-14T00:08:27.408Z,93813.31
2022-11-14T00:10:54.151Z,93787.63
2022-11-14T00:13:21.045Z,93766.34
2022-11-14T00:15:54.343Z,93784.09
2022-11-14T00:18:22.545Z,93819.50
2022-11-14T00:20:53.182Z,93827.59
2022-11-14T00:23:21.147Z,93812.09
2022-11-14T00:25:48.313Z,93825.88
2022-11-14T00:28:14.817Z,93795.06
2022-11-14T00:30:41.322Z,93793.44
2022-11-14T00:33:07.740Z,93803.16
2022-11-14T00:35:34.204Z,93811.75
2022-11-14T00:38:00.682Z,93793.84
2022-11-14T00:40:27.162Z,93784.81
2022-11-14T00:42:53.682Z,93798.63
2022-11-14T00:45:20.295Z,93811.78
2022-11-14T00:47:46.726Z,93775.88
2022-11-14T00:50:13.170Z,93822.53
2022-11-14T00:52:39.571Z,93769.53
2022-11-14T00:55:06.761Z,93760.69
2022-11-14T00:57:33.185Z,93779.25
2022-11-14T00:59:59.637Z,93771.53
2022-11-14T01:02:26.063Z,93795.00
2022-11-14T01:04:52.732Z,93778.50
2022-11-14T01:07:19.198Z,93783.47
2022-11-14T01:09:45.786Z,93799.63
2022-11-14T01:12:12.285Z,93764.56
2022-11-14T01:14:40.805Z,93790.16
2022-11-14T01:17:07.576Z,93776.72
2022-11-14T01:19:34.206Z,93714.00
2022-11-14T01:22:05.920Z,93799.25
2022-11-14T01:24:33.916Z,93803.75
2022-11-14T01:27:01.024Z,93808.38
2022-11-14T01:29:28.088Z,93763.00
2022-11-14T01:31:54.704Z,93810.50
2022-11-14T01:34:21.599Z,93770.72
2022-11-14T01:36:48.063Z,93817.50
2022-11-14T01:39:14.584Z,93826.19
2022-11-14T01:41:41.077Z,93762.75
2022-11-14T01:44:37.882Z,93757.47
2022-11-14T01:47:05.116Z,93749.19
2022-11-14T01:49:39.681Z,93806.44
2022-11-14T01:52:16.029Z,93681.63
2022-11-14T01:54:46.330Z,93813.41
2022-11-14T01:57:18.342Z,93758.97
2022-11-14T01:59:51.888Z,93712.25
2022-11-14T02:02:21.027Z,93820.91
2022-11-14T02:04:53.742Z,93807.88
2022-11-14T02:07:20.433Z,93788.03
2022-11-14T02:09:48.801Z,93746.56
2022-11-14T02:12:17.933Z,93657.66
2022-11-14T02:14:47.514Z,93806.75
2022-11-14T02:17:31.921Z,93667.09
2022-11-14T02:20:11.246Z,93817.84
2022-11-14T02:22:39.391Z,93802.69
2022-11-14T02:25:07.071Z,93804.22
2022-11-14T02:27:34.862Z,93830.44
2022-11-14T02:30:11.314Z,93806.75
2022-11-14T02:33:08.678Z,93730.69
2022-11-14T02:35:24.311Z,93740.06
2022-11-14T02:37:50.787Z,93768.63
2022-11-14T02:40:17.394Z,93724.00
2022-11-14T02:42:43.816Z,93741.16
2022-11-14T02:45:12.106Z,93782.28
2022-11-14T02:47:38.622Z,93802.09
2022-11-14T02:50:05.533Z,93767.09
2022-11-14T02:52:31.960Z,93736.75
2022-11-14T02:54:58.450Z,93619.09
2022-11-14T02:57:24.877Z,93797.63
2022-11-14T02:59:52.317Z,93707.13
2022-11-14T03:02:18.793Z,93659.81
2022-11-14T03:04:45.292Z,93640.69
2022-11-14T03:07:11.863Z,93786.47
2022-11-14T03:09:38.368Z,93751.56
2022-11-14T03:12:05.010Z,93710.78
2022-11-14T03:14:31.990Z,93688.06
2022-11-14T03:16:58.442Z,93750.53
2022-11-14T03:19:24.930Z,93742.38
2022-11-14T03:21:51.361Z,93675.84
2022-11-14T03:24:17.883Z,93730.13
2022-11-14T03:26:44.364Z,93637.38
2022-11-14T03:29:10.818Z,93697.47
2022-11-14T03:31:37.258Z,93709.25
2022-11-14T03:34:03.772Z,93785.81
2022-11-14T03:36:30.309Z,93774.16
2022-11-14T03:39:07.133Z,93708.81
2022-11-14T03:41:33.580Z,93766.41
2022-11-14T03:44:00.064Z,93667.75
2022-11-14T03:46:27.021Z,93629.03
2022-11-14T03:48:53.511Z,93725.03
2022-11-14T03:51:23.944Z,93715.38
2022-11-14T03:53:50.364Z,93754.22
2022-11-14T03:56:16.867Z,93661.28
2022-11-14T03:58:43.322Z,93649.63
2022-11-14T04:01:09.893Z,93639.03
2022-11-14T04:03:36.406Z,93677.50
2022-11-14T04:06:03.170Z,93694.84
2022-11-14T04:08:30.075Z,93662.75
2022-11-14T04:10:56.808Z,93639.03
2022-11-14T04:13:24.383Z,93653.66
2022-11-14T04:15:55.478Z,93726.09
2022-11-14T04:18:22.242Z,93666.50
2022-11-14T04:20:48.678Z,93698.97
2022-11-14T04:23:15.120Z,93661.75
2022-11-14T04:25:44.010Z,93578.09
2022-11-14T04:28:10.434Z,93534.47
2022-11-14T04:30:37.255Z,93729.03
2022-11-14T04:33:03.964Z,93517.09
2022-11-14T04:35:30.411Z,93553.53
2022-11-14T04:37:56.828Z,93713.81
2022-11-14T04:40:23.477Z,93664.38
2022-11-14T04:42:49.919Z,93651.78
2022-11-14T04:45:16.468Z,93582.81
2022-11-14T04:47:43.103Z,93676.38
2022-11-14T04:50:10.553Z,93729.38
2022-11-14T04:52:37.175Z,93658.84
2022-11-14T04:55:03.838Z,93669.22
2022-11-14T04:57:30.310Z,93597.44
2022-11-14T04:59:56.742Z,93622.38
2022-11-14T05:02:23.275Z,93674.34
2022-11-14T05:04:49.809Z,93616.50
2022-11-14T05:07:18.426Z,93677.94
2022-11-14T05:09:44.908Z,93679.53
2022-11-14T05:12:11.354Z,93697.03
2022-11-14T05:14:37.852Z,93681.47
2022-11-14T05:17:04.279Z,93607.75
2022-11-14T05:19:30.817Z,93597.03
2022-11-14T05:21:57.485Z,93662.59
2022-11-14T05:24:24.349Z,93707.06
2022-11-14T05:26:50.813Z,93724.06
2022-11-14T05:29:17.299Z,93722.41
2022-11-14T05:31:44.118Z,93686.16
2022-11-14T05:34:10.550Z,93698.09
2022-11-14T05:36:37.005Z,93597.63
2022-11-14T05:39:03.485Z,93572.41
2022-11-14T05:41:29.909Z,93617.56
2022-11-14T05:43:56.348Z,93603.66
2022-11-14T05:46:22.848Z,93588.25
2022-11-14T05:48:49.364Z,93576.88
2022-11-14T05:51:15.881Z,93713.16
2022-11-14T05:53:42.522Z,93622.13
2022-11-14T05:56:12.118Z,93579.75
2022-11-14T05:58:39.064Z,93697.78
2022-11-14T06:01:14.437Z,93638.59
2022-11-14T06:03:43.739Z,93614.63
2022-11-14T06:06:13.140Z,93617.97
2022-11-14T06:08:40.637Z,93677.31
2022-11-14T06:11:16.361Z,93605.09
2022-11-14T06:13:43.705Z,93672.22
2022-11-14T06:16:20.693Z,93676.38
2022-11-14T06:18:47.606Z,93637.97
2022-11-14T06:21:16.682Z,93578.91
2022-11-14T06:23:43.394Z,93584.84
2022-11-14T06:26:31.264Z,93726.47
2022-11-14T06:28:58.991Z,93620.50
2022-11-14T06:31:26.482Z,93667.38
2022-11-14T06:33:53.444Z,93717.88
2022-11-14T06:36:20.453Z,93715.06
2022-11-14T06:38:46.948Z,93717.88
2022-11-14T06:41:13.288Z,93755.22
2022-11-14T06:43:41.693Z,93746.34
2022-11-14T06:46:10.025Z,93729.53
2022-11-14T06:49:09.684Z,93750.22
2022-11-14T06:51:44.475Z,93738.53
2022-11-14T06:54:16.077Z,93751.50
2022-11-14T06:56:52.726Z,93743.69
2022-11-14T06:59:23.127Z,93755.63
2022-11-14T07:01:49.529Z,93746.72
2022-11-14T07:04:16.068Z,93730.13
2022-11-14T07:06:42.496Z,93749.22
2022-11-14T07:09:10.973Z,93718.56
2022-11-14T07:11:37.770Z,93746.03
2022-11-14T07:14:30.933Z,93758.09
2022-11-14T07:16:58.072Z,93761.00
2022-11-14T07:19:24.484Z,93748.41
2022-11-14T07:21:57.102Z,93743.25
2022-11-14T07:24:23.526Z,93748.13
2022-11-14T07:26:49.937Z,93751.06
2022-11-14T07:29:19.384Z,93737.63
2022-11-14T07:31:45.834Z,93745.56
2022-11-14T07:34:25.646Z,93761.78
2022-11-14T07:36:52.069Z,93755.03
2022-11-14T07:39:23.646Z,93723.50
2022-11-14T07:41:50.060Z,93741.53
2022-11-14T07:44:27.689Z,93734.34
2022-11-14T07:46:54.088Z,93700.97
2022-11-14T07:49:20.527Z,93732.66
2022-11-14T07:51:46.925Z,93716.50
2022-11-14T07:54:13.448Z,93715.91
2022-11-14T07:56:39.918Z,93730.91
2022-11-14T07:59:06.453Z,93732.03
2022-11-14T08:01:32.984Z,93715.97
2022-11-14T08:03:59.494Z,93741.72
2022-11-14T08:06:26.200Z,93732.13
2022-11-14T08:08:52.612Z,93735.06
2022-11-14T08:11:38.994Z,93752.56
2022-11-14T08:14:05.649Z,93745.78
2022-11-14T08:16:32.169Z,93746.13
2022-11-14T08:18:58.633Z,93760.69
2022-11-14T08:21:25.044Z,93761.31
2022-11-14T08:23:51.481Z,93757.59
2022-11-14T08:26:17.884Z,93746.06
2022-11-14T08:28:44.295Z,93734.22
2022-11-14T08:31:18.812Z,93719.72
2022-11-14T08:33:45.254Z,93753.47
2022-11-14T08:36:11.788Z,93757.00
2022-11-14T08:38:57.484Z,93737.84
2022-11-14T08:41:27.028Z,93743.63
2022-11-14T08:43:53.533Z,93763.72
2022-11-14T08:46:33.341Z,93736.16
2022-11-14T08:48:59.748Z,93740.78
2022-11-14T08:51:26.176Z,93754.06
2022-11-14T08:53:52.653Z,93759.47
2022-11-14T08:56:19.112Z,93756.56
2022-11-14T08:58:51.640Z,93778.72
2022-11-14T09:01:18.121Z,93775.44
2022-11-14T09:03:44.747Z,93752.78
2022-11-14T09:06:11.298Z,93765.78
2022-11-14T09:08:37.709Z,93790.44
2022-11-14T09:11:09.284Z,93781.41
2022-11-14T09:13:42.253Z,93772.03
2022-11-14T09:16:08.635Z,93733.88
2022-11-14T09:18:35.340Z,93810.91
2022-11-14T09:21:03.570Z,93805.31
2022-11-14T09:23:30.668Z,93767.31
2022-11-14T09:25:57.438Z,93793.97
2022-11-14T09:28:24.338Z,93804.59
2022-11-14T09:30:50.751Z,93802.28
2022-11-14T09:33:17.154Z,93778.00
2022-11-14T09:35:43.602Z,93824.31
2022-11-14T09:38:16.966Z,93830.44
2022-11-14T09:40:59.519Z,93829.31
2022-11-14T09:43:58.099Z,93833.91
2022-11-14T09:46:31.112Z,93820.31
2022-11-14T09:48:57.912Z,93836.94
2022-11-14T09:51:50.217Z,93828.19
2022-11-14T09:54:22.894Z,93808.94
2022-11-14T09:56:49.734Z,93793.69
2022-11-14T09:59:16.366Z,93818.25
2022-11-14T10:01:57.396Z,93824.69
2022-11-14T10:04:32.782Z,93846.44
2022-11-14T10:07:17.504Z,93856.09
2022-11-14T10:09:56.013Z,93848.81
2022-11-14T10:12:40.573Z,93834.75
2022-11-14T10:15:07.024Z,93851.56
2022-11-14T10:17:57.062Z,93838.31
2022-11-14T10:20:29.381Z,93847.50
2022-11-14T10:23:10.905Z,93835.72
2022-11-14T10:25:54.507Z,93835.78
2022-11-14T10:29:00.124Z,93853.50
2022-11-14T10:31:42.141Z,93862.44
2022-11-14T10:34:14.624Z,93834.47
2022-11-14T10:36:56.111Z,93839.63
2022-11-14T10:39:29.288Z,93866.22
2022-11-14T10:42:06.242Z,93868.47
2022-11-14T10:44:42.246Z,93843.91
2022-11-14T10:47:16.264Z,93861.16
2022-11-14T10:49:46.768Z,93838.97
2022-11-14T10:52:17.154Z,93854.22
2022-11-14T10:54:50.211Z,93845.72
2022-11-14T10:57:20.022Z,93860.00
2022-11-14T11:00:02.519Z,93851.41
2022-11-14T11:02:48.139Z,93840.81
2022-11-14T11:05:17.086Z,93854.34
2022-11-14T11:08:21.434Z,93857.25
2022-11-14T11:11:17.312Z,93833.09
2022-11-14T11:13:58.529Z,93852.28
2022-11-14T11:16:26.897Z,93842.41
2022-11-14T11:18:54.449Z,93792.53
2022-11-14T11:21:23.324Z,93815.75
2022-11-14T11:24:03.211Z,93804.19
2022-11-14T11:26:31.970Z,93816.06
2022-11-14T11:29:16.187Z,93807.19
2022-11-14T11:32:03.047Z,93784.06
2022-11-14T11:34:32.991Z,93760.25
2022-11-14T11:37:20.711Z,93786.38
2022-11-14T11:39:54.973Z,93791.63
2022-11-14T11:45:34.658Z,93780.38
2022-11-14T11:48:19.648Z,93793.53
2022-11-14T11:50:47.086Z,93812.75
2022-11-14T11:53:34.339Z,93786.19
2022-11-14T11:56:14.589Z,93799.28
2022-11-14T11:59:06.848Z,93814.44
2022-11-14T12:01:33.334Z,93816.75
2022-11-14T12:04:00.739Z,93798.47
2022-11-14T12:06:32.178Z,93785.81
2022-11-14T12:09:29.503Z,93814.47
2022-11-14T12:12:14.443Z,93805.88
2022-11-14T12:14:59.048Z,93806.03
2022-11-14T12:17:30.518Z,93805.75
2022-11-14T12:20:06.035Z,93794.22
2022-11-14T12:23:11.080Z,93814.63
2022-11-14T12:26:03.790Z,93809.69
2022-11-14T12:28:44.398Z,93807.06
2022-11-14T12:31:16.955Z,93799.06
2022-11-14T12:34:05.457Z,93814.88
2022-11-14T12:36:34.628Z,93811.00
2022-11-14T12:39:02.176Z,93764.03
2022-11-14T12:41:32.619Z,93789.69
2022-11-14T12:44:17.438Z,93820.78
2022-11-14T12:47:13.713Z,93807.94
2022-11-14T12:49:49.639Z,93816.97
2022-11-14T12:52:41.047Z,93825.16
2022-11-14T12:55:30.052Z,93825.56
2022-11-14T12:58:23.509Z,93804.41
2022-11-14T13:00:49.909Z,93830.41
2022-11-14T13:03:31.818Z,93823.69
2022-11-14T13:06:09.023Z,93834.63
2022-11-14T13:08:53.370Z,93829.41
2022-11-14T13:11:50.709Z,93811.22
2022-11-14T13:14:41.612Z,93811.91
2022-11-14T13:17:43.412Z,93806.75
2022-11-14T13:20:40.345Z,93818.97
2022-11-14T13:23:25.433Z,93820.16
2022-11-14T13:26:10.313Z,93817.97
2022-11-14T13:28:53.495Z,93803.34
2022-11-14T13:31:44.365Z,93790.22
2022-11-14T13:34:29.080Z,93805.13
2022-11-14T13:37:14.118Z,93799.88
2022-11-14T13:39:52.047Z,93814.34
2022-11-14T13:42:18.424Z,93817.38
2022-11-14T13:45:17.475Z,93819.28
2022-11-14T13:48:17.634Z,93825.09
2022-11-14T13:50:49.797Z,93816.19
2022-11-14T13:53:24.849Z,93826.56
2022-11-14T13:55:55.664Z,93822.97
2022-11-14T13:58:37.075Z,93796.53
2022-11-14T14:01:31.776Z,93800.28
2022-11-14T14:04:29.732Z,93811.28
2022-11-14T14:07:23.755Z,93821.91
2022-11-14T14:10:29.275Z,93818.84
2022-11-14T14:13:10.758Z,93810.94
2022-11-14T14:15:49.092Z,93800.78
2022-11-14T14:18:34.173Z,93814.91
2022-11-14T14:21:19.712Z,93794.47
2022-11-14T14:23:57.500Z,93794.75
2022-11-14T14:26:55.713Z,93801.69
2022-11-14T14:29:37.537Z,93804.47
2022-11-14T14:32:15.716Z,93803.59
2022-11-14T14:34:42.497Z,93787.16
2022-11-14T14:37:24.283Z,93771.06
2022-11-14T14:40:01.886Z,93785.56
2022-11-14T14:42:38.386Z,93776.81
2022-11-14T14:45:05.412Z,93807.31
2022-11-14T14:47:31.770Z,93813.56
2022-11-14T14:50:21.703Z,93817.44
2022-11-14T14:53:06.272Z,93809.66
2022-11-14T14:55:35.009Z,93827.88
2022-11-14T14:58:34.105Z,93819.78
2022-11-14T15:01:03.860Z,93828.41
2022-11-14T15:03:37.884Z,93806.19
2022-11-14T15:06:17.759Z,93825.09
2022-11-14T15:08:45.930Z,93791.38
2022-11-14T15:11:15.253Z,93818.91
2022-11-14T15:13:42.688Z,93813.75
2022-11-14T15:16:16.916Z,93808.72
2022-11-14T15:18:44.432Z,93805.19
2022-11-14T15:21:23.138Z,93835.09
2022-11-14T15:24:18.750Z,93828.84
2022-11-14T15:26:52.104Z,93832.69
2022-11-14T15:29:19.723Z,93829.91
2022-11-14T15:31:52.898Z,93826.31
2022-11-14T15:34:26.344Z,93778.88
2022-11-14T15:37:19.318Z,93794.56
2022-11-14T15:39:47.463Z,93814.66
2022-11-14T15:42:28.203Z,93814.19
2022-11-14T15:44:55.568Z,93794.63
2022-11-14T15:47:28.566Z,93812.47
2022-11-14T15:50:25.901Z,93813.88
2022-11-14T15:53:23.396Z,93800.25
2022-11-14T15:55:49.834Z,93823.81
2022-11-14T15:58:32.857Z,93796.97
2022-11-14T16:01:03.758Z,93800.56
2022-11-14T16:03:30.396Z,93815.69
2022-11-14T16:05:57.007Z,93804.88
2022-11-14T16:08:23.445Z,93806.38
2022-11-14T16:10:49.855Z,93803.13
2022-11-14T16:13:16.307Z,93817.16
2022-11-14T16:15:42.809Z,93820.00
2022-11-14T16:18:12.123Z,93827.81
2022-11-14T16:20:39.659Z,93796.25
2022-11-14T16:23:13.942Z,93821.31
2022-11-14T16:25:40.432Z,93808.69
2022-11-14T16:28:06.898Z,93830.31
2022-11-14T16:30:33.348Z,93830.56
2022-11-14T16:32:59.841Z,93817.19
2022-11-14T16:35:27.602Z,93852.69
2022-11-14T16:37:57.055Z,93834.31
2022-11-14T16:40:27.807Z,93856.69
2022-11-14T16:42:55.872Z,93837.13
2022-11-14T16:45:22.779Z,93854.69
2022-11-14T16:47:49.912Z,93848.34
2022-11-14T16:50:17.283Z,93836.69
2022-11-14T16:52:43.739Z,93836.41
2022-11-14T16:55:11.704Z,93861.50
2022-11-14T16:57:39.077Z,93842.66
2022-11-14T17:00:08.650Z,93868.84
2022-11-14T17:02:35.064Z,93848.22
2022-11-14T17:05:01.493Z,93851.69
2022-11-14T17:07:32.600Z,93849.88
2022-11-14T17:10:02.511Z,93871.56
2022-11-14T17:12:28.985Z,93854.09
2022-11-14T17:14:55.447Z,93866.59
2022-11-14T17:17:21.925Z,93836.59
2022-11-14T17:19:48.619Z,93807.63
2022-11-14T17:22:16.470Z,93872.94
2022-11-14T17:24:47.065Z,93861.16
2022-11-14T17:27:13.518Z,93834.41
2022-11-14T17:29:40.038Z,93822.53
2022-11-14T17:32:06.729Z,93821.00
2022-11-14T17:34:33.188Z,93842.72
2022-11-14T17:36:59.610Z,93849.25
2022-11-14T17:39:26.304Z,93779.81
2022-11-14T17:41:53.171Z,93855.41
2022-11-14T17:44:19.639Z,93830.47
2022-11-14T17:46:47.346Z,93860.66
2022-11-14T17:49:13.761Z,93859.72
2022-11-14T17:51:40.190Z,93836.69
2022-11-14T17:54:06.696Z,93863.63
2022-11-14T17:56:33.222Z,93847.25
2022-11-14T17:58:59.645Z,93855.06
2022-11-14T18:01:26.329Z,93838.44
2022-11-14T18:03:53.005Z,93853.47
2022-11-14T18:06:21.347Z,93832.16
2022-11-14T18:08:48.538Z,93866.41
2022-11-14T18:11:17.206Z,93861.75
2022-11-14T18:13:44.098Z,93856.41
2022-11-14T18:16:16.682Z,93871.31
2022-11-14T18:18:43.372Z,93869.50
2022-11-14T18:21:14.286Z,93872.56
2022-11-14T18:24:02.479Z,93868.50
2022-11-14T18:26:29.209Z,93854.81
2022-11-14T18:29:03.198Z,93877.09
2022-11-14T18:31:30.210Z,93851.22
2022-11-14T18:34:02.941Z,93836.34
2022-11-14T18:36:29.473Z,93854.47
2022-11-14T18:38:56.985Z,93866.75
2022-11-14T18:41:24.496Z,93842.50
2022-11-14T18:43:55.435Z,93852.03
2022-11-14T18:46:24.405Z,93853.94
2022-11-14T18:48:57.103Z,93852.53
2022-11-14T18:51:27.405Z,93832.47
2022-11-14T18:54:10.249Z,93850.44
2022-11-14T18:56:36.735Z,93834.78
2022-11-14T18:59:03.165Z,93842.84
2022-11-14T19:01:32.058Z,93819.28
2022-11-14T19:04:04.056Z,93809.25
2022-11-14T19:06:36.508Z,93840.59
2022-11-14T19:09:11.325Z,93822.19
2022-11-14T19:11:57.399Z,93837.38
2022-11-14T19:14:24.886Z,93827.66
2022-11-14T19:16:51.325Z,93834.63
2022-11-14T19:19:18.931Z,93840.59
2022-11-14T19:21:50.339Z,93845.09
2022-11-14T19:24:17.423Z,93817.28
2022-11-14T19:26:44.470Z,93837.31
2022-11-14T19:29:13.324Z,93820.81
2022-11-14T19:32:03.880Z,93835.97
2022-11-14T19:34:32.416Z,93812.03
2022-11-14T19:37:00.672Z,93804.44
2022-11-14T19:39:35.697Z,93811.97
2022-11-14T19:42:02.138Z,93803.56
2022-11-14T19:44:28.560Z,93811.78
2022-11-14T19:46:55.047Z,93818.34
2022-11-14T19:49:21.630Z,93791.84
2022-11-14T19:51:48.836Z,93802.31
2022-11-14T19:54:15.620Z,93823.50
2022-11-14T19:56:42.071Z,93823.16
2022-11-14T19:59:28.736Z,93818.53
2022-11-14T20:01:55.696Z,93835.53
2022-11-14T20:04:24.225Z,93835.84
2022-11-14T20:06:52.892Z,93832.94
2022-11-14T20:09:32.801Z,93833.59
2022-11-14T20:11:59.296Z,93813.69
2022-11-14T20:14:25.742Z,93790.00
2022-11-14T20:16:52.363Z,93805.25
2022-11-14T20:19:20.911Z,93820.81
2022-11-14T20:21:48.839Z,93829.69
2022-11-14T20:24:21.306Z,93835.38
2022-11-14T20:26:48.984Z,93823.56
2022-11-14T20:29:15.392Z,93801.75
2022-11-14T20:31:41.982Z,93824.44
2022-11-14T20:34:10.466Z,93810.19
2022-11-14T20:37:08.845Z,93799.84
2022-11-14T20:39:23.326Z,93792.75
2022-11-14T20:41:50.062Z,93796.63
2022-11-14T20:44:18.828Z,93818.28
2022-11-14T20:46:51.374Z,93831.19
2022-11-14T20:49:22.046Z,93815.06
2022-11-14T20:51:49.180Z,93812.31
2022-11-14T20:54:16.363Z,93803.72
2022-11-14T20:56:42.787Z,93790.47
2022-11-14T20:59:14.394Z,93808.56
2022-11-14T21:01:43.904Z,93808.09
2022-11-14T21:04:10.780Z,93814.69
2022-11-14T21:06:56.814Z,93835.41
2022-11-14T21:09:23.294Z,93822.44
2022-11-14T21:11:49.762Z,93799.50
2022-11-14T21:14:16.294Z,93791.41
2022-11-14T21:16:42.810Z,93809.53
2022-11-14T21:19:12.248Z,93784.50
2022-11-14T21:21:38.950Z,93811.47
2022-11-14T21:24:06.192Z,93804.38
2022-11-14T21:26:39.206Z,93811.50
2022-11-14T21:29:10.051Z,93807.94
2022-11-14T21:31:39.315Z,93825.41
2022-11-14T21:34:16.721Z,93820.25
2022-11-14T21:36:45.394Z,93800.81
2022-11-14T21:39:16.731Z,93805.69
2022-11-14T21:41:45.202Z,93797.91
2022-11-14T21:44:14.448Z,93800.19
2022-11-14T21:46:41.366Z,93817.16
2022-11-14T21:49:14.416Z,93795.00
2022-11-14T21:51:41.024Z,93808.25
2022-11-14T21:54:08.520Z,93778.34
2022-11-14T21:56:37.029Z,93812.47
2022-11-14T21:59:15.578Z,93774.97
2022-11-14T22:02:06.657Z,93804.88
2022-11-14T22:04:39.510Z,93796.28
2022-11-14T22:07:08.098Z,93800.81
2022-11-14T22:09:45.092Z,93761.72
2022-11-14T22:12:12.003Z,93795.00
2022-11-14T22:14:38.466Z,93772.69
2022-11-14T22:17:04.898Z,93767.22
2022-11-14T22:19:31.339Z,93775.91
2022-11-14T22:21:57.903Z,93750.38
2022-11-14T22:24:26.382Z,93774.31
2022-11-14T22:26:52.831Z,93780.78
2022-11-14T22:29:19.326Z,93781.91
2022-11-14T22:31:45.807Z,93773.97
2022-11-14T22:34:12.375Z,93760.41
2022-11-14T22:36:39.024Z,93763.63
2022-11-14T22:39:05.608Z,93774.31
2022-11-14T22:41:33.712Z,93785.59
2022-11-14T22:44:01.315Z,93761.00
2022-11-14T22:46:28.608Z,93787.69
2022-11-14T22:48:55.644Z,93788.81
2022-11-14T22:51:24.291Z,93788.50
2022-11-14T22:53:52.936Z,93792.03
2022-11-14T22:56:28.179Z,93767.47
2022-11-14T22:58:55.294Z,93787.16
2022-11-14T23:01:29.570Z,93793.00
2022-11-14T23:03:58.613Z,93785.25
2022-11-14T23:06:25.935Z,93771.47
2022-11-14T23:08:53.357Z,93763.56
2022-11-14T23:11:25.673Z,93773.44
2022-11-14T23:13:54.212Z,93754.88
2022-11-14T23:16:29.184Z,93754.56
2022-11-14T23:18:57.586Z,93773.59
2022-11-14T23:21:33.371Z,93709.59
2022-11-14T23:24:05.227Z,93768.75
2022-11-14T23:26:32.079Z,93744.66
2022-11-14T23:28:59.199Z,93765.81
2022-11-14T23:31:25.760Z,93745.75
2022-11-14T23:33:54.570Z,93728.97
2022-11-14T23:36:21.361Z,93725.03
2022-11-14T23:38:48.140Z,93717.25
2022-11-14T23:41:17.929Z,93728.25
2022-11-14T23:43:48.626Z,93727.94
2022-11-14T23:46:17.125Z,93733.75
2022-11-14T23:48:43.692Z,93730.50
2022-11-14T23:51:10.186Z,93744.41
2022-11-14T23:53:36.708Z,93748.09
2022-11-14T23:56:03.489Z,93740.53
2022-11-14T23:58:30.437Z,93749.22
